»·PEaware :: SWA2755 KLAS-KRNO

SWA2755 :: KLAS-KRNO

FLIGHT INFORMATION

Flight Status: Arrived
Operator:
Southwest Airlines
More flights by this operator :: More flights under this callsign
Pilot: John C. (18682)
Aircraft: BOEING 737-800
(B738)
More flights by this aircraft type
Origin: KLAS McCarran Intl
United States
Destination: KRNO Reno/Tahoe Intl
United States
More flights between these airports :: More routes between these airports
Route: SHEAD1 KENNO KENNO2
File this flight plan on PilotEdge
Remarks:
Altitude:
(Current/Filed)
34,000ft
Speed:
(Current/Filed)
460kts
Departed: 10-Nov-20 05:04 PM
Arrived: 10-Nov-20 06:03 PM
Distance/Time
Traveled:
300nm/0:59
Distance/Time
To Go:
Arrived

Flight Plot

Page will automatically refresh every two minutes.

Flight plan parsing failed; only flown route is shown


Map Options




Map Legend


Flown Route
Filed Route
Departure Airport
Arrival Airport
Navaid (VOR, NDB)
Fix

Horizontal Profiles

Position Reports

Time Latitude Longitude Heading Altitude Ground
Speed
10-Nov-20 16:38 36.079888 -115.147040 59 2098ft 0kts
10-Nov-20 16:39 36.079888 -115.147040 59 2098ft 0kts
10-Nov-20 16:41 36.079888 -115.147040 59 2098ft 0kts
10-Nov-20 16:42 36.079888 -115.147040 59 2098ft 0kts
10-Nov-20 16:43 36.079888 -115.147040 59 2098ft 0kts
10-Nov-20 16:44 36.079888 -115.147040 59 2098ft 0kts
10-Nov-20 16:45 36.079888 -115.147040 59 2098ft 0kts
10-Nov-20 16:46 36.079888 -115.147041 59 2098ft 0kts
10-Nov-20 16:47 36.079888 -115.147041 59 2098ft 0kts
10-Nov-20 16:48 36.079888 -115.147041 59 2098ft 0kts
10-Nov-20 16:49 36.079888 -115.147041 59 2098ft 0kts
10-Nov-20 16:50 36.079888 -115.147041 59 2098ft 0kts
10-Nov-20 16:51 36.079888 -115.147041 59 2098ft 0kts
10-Nov-20 16:52 36.079888 -115.147041 59 2098ft 0kts
10-Nov-20 16:53 36.079708 -115.147422 67 2100ft 2kts
10-Nov-20 16:54 36.079891 -115.147851 155 2101ft 0kts
10-Nov-20 16:55 36.079891 -115.147851 155 2101ft 0kts
10-Nov-20 16:56 36.079524 -115.147643 155 2102ft 5kts
10-Nov-20 16:57 36.079025 -115.147357 154 2102ft 7kts
10-Nov-20 16:58 36.078263 -115.142105 90 2087ft 25kts
10-Nov-20 16:59 36.078265 -115.133419 89 2060ft 22kts
10-Nov-20 16:59 36.078274 -115.127560 90 2045ft 17kts
10-Nov-20 17:01 36.077430 -115.121448 129 2038ft 5kts
10-Nov-20 17:01 36.077035 -115.121278 179 2039ft 8kts
10-Nov-20 17:03 36.076456 -115.121815 268 2040ft 0kts
10-Nov-20 17:03 36.076452 -115.123978 269 2042ft 63kts
10-Nov-20 17:04 36.076441 -115.178889 271 3629ft 198kts
10-Nov-20 17:05 36.060132 -115.256137 220 5650ft 279kts
10-Nov-20 17:06 35.986968 -115.295010 205 9023ft 300kts
10-Nov-20 17:07 35.918840 -115.364937 228 11062ft 359kts
10-Nov-20 17:08 35.887578 -115.478368 273 14057ft 359kts
10-Nov-20 17:09 35.889620 -115.602699 276 16933ft 367kts
10-Nov-20 17:10 35.891935 -115.730138 275 19152ft 382kts
10-Nov-20 17:11 35.894060 -115.858370 276 19134ft 374kts
10-Nov-20 17:12 35.913667 -115.980734 306 19126ft 359kts
10-Nov-20 17:13 35.982364 -116.069848 318 21115ft 361kts
10-Nov-20 17:14 36.056332 -116.155485 318 23263ft 369kts
10-Nov-20 17:15 36.132066 -116.242943 317 25195ft 377kts
10-Nov-20 17:16 36.209327 -116.332299 316 26939ft 385kts
10-Nov-20 17:17 36.288214 -116.423766 315 28493ft 393kts
10-Nov-20 17:18 36.368488 -116.517098 314 29886ft 401kts
10-Nov-20 17:19 36.449328 -116.611353 313 31560ft 397kts
10-Nov-20 17:20 36.528798 -116.705123 312 33150ft 393kts
10-Nov-20 17:21 36.617001 -116.786034 321 34122ft 403kts
10-Nov-20 17:22 36.711630 -116.859465 322 34119ft 400kts
10-Nov-20 17:23 36.806522 -116.932024 322 34124ft 401kts
10-Nov-20 17:24 36.901604 -117.004639 322 34140ft 401kts
10-Nov-20 17:25 36.996502 -117.077253 321 34146ft 400kts
10-Nov-20 17:26 37.091309 -117.150006 320 34144ft 401kts
10-Nov-20 17:27 37.186247 -117.223068 320 34146ft 402kts
10-Nov-20 17:28 37.281207 -117.296962 317 34145ft 399kts
10-Nov-20 17:29 37.366583 -117.383429 313 34143ft 394kts
10-Nov-20 17:30 37.449940 -117.472359 313 34115ft 394kts
10-Nov-20 17:31 37.538951 -117.554200 319 34120ft 401kts
10-Nov-20 17:32 37.633201 -117.629511 320 34140ft 402kts
10-Nov-20 17:33 37.727400 -117.704428 319 34117ft 401kts
10-Nov-20 17:34 37.821499 -117.779331 319 34094ft 401kts
10-Nov-20 17:35 37.915926 -117.854633 319 34073ft 401kts
10-Nov-20 17:36 38.009993 -117.929850 319 34108ft 400kts
10-Nov-20 17:37 38.104003 -118.005257 319 34146ft 400kts
10-Nov-20 17:38 38.198196 -118.081056 319 34146ft 401kts
10-Nov-20 17:39 38.291811 -118.156598 319 34146ft 400kts
10-Nov-20 17:40 38.385673 -118.232902 317 34145ft 398kts
10-Nov-20 17:41 38.468009 -118.322909 309 34145ft 384kts
10-Nov-20 17:42 38.545097 -118.417334 309 34146ft 385kts
10-Nov-20 17:43 38.622899 -118.513452 310 32640ft 399kts
10-Nov-20 17:44 38.702166 -118.611629 311 29363ft 399kts
10-Nov-20 17:45 38.779077 -118.707472 310 28152ft 379kts
10-Nov-20 17:46 38.855946 -118.803506 311 28144ft 384kts
10-Nov-20 17:47 38.931129 -118.897336 311 26117ft 376kts
10-Nov-20 17:48 39.005075 -118.989888 312 23289ft 369kts
10-Nov-20 17:49 39.077366 -119.080661 312 20610ft 360kts
10-Nov-20 17:50 39.148209 -119.169315 315 18051ft 351kts
10-Nov-20 17:51 39.220499 -119.251269 316 15543ft 343kts
10-Nov-20 17:52 39.291205 -119.331277 316 13113ft 336kts
10-Nov-20 17:53 39.360014 -119.409200 316 11358ft 310kts
10-Nov-20 17:54 39.419146 -119.476199 315 10950ft 261kts
10-Nov-20 17:55 39.470224 -119.534228 314 10204ft 236kts
10-Nov-20 17:56 39.519458 -119.585727 325 9464ft 220kts
10-Nov-20 17:57 39.570691 -119.633437 321 8429ft 221kts
10-Nov-20 17:58 39.609931 -119.685279 282 7349ft 190kts
10-Nov-20 17:59 39.598229 -119.740794 220 6280ft 161kts
10-Nov-20 18:00 39.561074 -119.768417 187 5416ft 158kts
10-Nov-20 18:01 39.516669 -119.769217 178 4584ft 163kts
10-Nov-20 18:02 39.492801 -119.769968 240 4410ft 3kts
10-Nov-20 18:03 39.492569 -119.771084 284 4412ft 9kts
10-Nov-20 18:04 39.495418 -119.771519 0 4412ft 13kts
10-Nov-20 18:05 39.499443 -119.771501 0 4412ft 18kts
10-Nov-20 18:06 39.504887 -119.771499 359 4412ft 18kts
10-Nov-20 18:07 39.505527 -119.772649 203 4414ft 3kts
10-Nov-20 18:08 39.505270 -119.772754 197 4414ft 0kts
10-Nov-20 18:09 39.505270 -119.772754 197 4414ft 0kts
10-Nov-20 18:10 39.505270 -119.772754 197 4414ft 0kts

Navigation Log

Ident Type
Flight plan parsing failed, navigation log unavailable